sensor_id;sensor_type;location;lat;lon;timestamp;P1;durP1;ratioP1;P2;durP2;ratioP2
83690;SDS011;73671;43.220;0.064;2023-12-07T00:01:07;44.20;;;24.75;;
83690;SDS011;73671;43.220;0.064;2023-12-07T00:03:32;40.00;;;23.88;;
83690;SDS011;73671;43.220;0.064;2023-12-07T00:05:58;38.58;;;21.85;;
83690;SDS011;73671;43.220;0.064;2023-12-07T00:08:23;33.83;;;20.40;;
83690;SDS011;73671;43.220;0.064;2023-12-07T00:10:49;36.28;;;21.60;;
83690;SDS011;73671;43.220;0.064;2023-12-07T00:13:14;40.45;;;23.38;;
83690;SDS011;73671;43.220;0.064;2023-12-07T00:15:39;40.90;;;21.50;;
83690;SDS011;73671;43.220;0.064;2023-12-07T00:18:05;41.25;;;23.65;;
83690;SDS011;73671;43.220;0.064;2023-12-07T00:20:31;48.30;;;25.08;;
83690;SDS011;73671;43.220;0.064;2023-12-07T00:22:56;42.72;;;23.35;;
83690;SDS011;73671;43.220;0.064;2023-12-07T00:25:21;38.08;;;22.65;;
83690;SDS011;73671;43.220;0.064;2023-12-07T00:27:47;37.47;;;22.20;;
83690;SDS011;73671;43.220;0.064;2023-12-07T00:30:13;38.60;;;22.83;;
83690;SDS011;73671;43.220;0.064;2023-12-07T00:32:39;40.50;;;22.52;;
83690;SDS011;73671;43.220;0.064;2023-12-07T00:35:08;36.60;;;22.15;;
83690;SDS011;73671;43.220;0.064;2023-12-07T00:37:33;43.92;;;21.67;;
83690;SDS011;73671;43.220;0.064;2023-12-07T00:39:59;37.83;;;22.17;;
83690;SDS011;73671;43.220;0.064;2023-12-07T00:42:24;34.45;;;20.98;;
83690;SDS011;73671;43.220;0.064;2023-12-07T00:44:49;35.50;;;21.17;;
83690;SDS011;73671;43.220;0.064;2023-12-07T00:47:15;36.35;;;20.08;;
83690;SDS011;73671;43.220;0.064;2023-12-07T00:49:40;30.67;;;18.95;;
83690;SDS011;73671;43.220;0.064;2023-12-07T00:52:06;30.63;;;16.92;;
83690;SDS011;73671;43.220;0.064;2023-12-07T00:54:31;31.67;;;17.73;;
83690;SDS011;73671;43.220;0.064;2023-12-07T00:56:57;30.92;;;17.65;;
83690;SDS011;73671;43.220;0.064;2023-12-07T00:59:23;26.30;;;17.00;;
83690;SDS011;73671;43.220;0.064;2023-12-07T01:01:48;24.63;;;16.27;;
83690;SDS011;73671;43.220;0.064;2023-12-07T01:04:14;32.70;;;16.65;;
83690;SDS011;73671;43.220;0.064;2023-12-07T01:06:39;25.02;;;16.20;;
83690;SDS011;73671;43.220;0.064;2023-12-07T01:09:04;29.23;;;16.90;;
83690;SDS011;73671;43.220;0.064;2023-12-07T01:11:30;26.55;;;15.55;;
83690;SDS011;73671;43.220;0.064;2023-12-07T01:13:55;27.08;;;15.35;;
83690;SDS011;73671;43.220;0.064;2023-12-07T01:16:21;22.20;;;14.60;;
83690;SDS011;73671;43.220;0.064;2023-12-07T01:18:46;20.25;;;14.93;;
83690;SDS011;73671;43.220;0.064;2023-12-07T01:21:11;25.83;;;14.80;;
83690;SDS011;73671;43.220;0.064;2023-12-07T01:23:37;23.95;;;12.38;;
83690;SDS011;73671;43.220;0.064;2023-12-07T01:26:03;18.60;;;12.55;;
83690;SDS011;73671;43.220;0.064;2023-12-07T01:28:28;19.63;;;13.23;;
83690;SDS011;73671;43.220;0.064;2023-12-07T01:30:54;21.52;;;13.05;;
83690;SDS011;73671;43.220;0.064;2023-12-07T01:33:20;22.77;;;13.93;;
83690;SDS011;73671;43.220;0.064;2023-12-07T01:35:45;19.20;;;12.82;;
83690;SDS011;73671;43.220;0.064;2023-12-07T01:38:10;23.25;;;11.73;;
83690;SDS011;73671;43.220;0.064;2023-12-07T01:40:37;18.13;;;12.85;;
83690;SDS011;73671;43.220;0.064;2023-12-07T01:43:02;23.42;;;12.40;;
83690;SDS011;73671;43.220;0.064;2023-12-07T01:45:28;19.90;;;12.57;;
83690;SDS011;73671;43.220;0.064;2023-12-07T01:47:53;21.60;;;13.25;;
83690;SDS011;73671;43.220;0.064;2023-12-07T01:50:21;21.15;;;12.07;;
83690;SDS011;73671;43.220;0.064;2023-12-07T01:52:49;17.00;;;11.95;;
83690;SDS011;73671;43.220;0.064;2023-12-07T01:55:19;16.80;;;11.20;;
83690;SDS011;73671;43.220;0.064;2023-12-07T01:57:47;17.92;;;11.77;;
83690;SDS011;73671;43.220;0.064;2023-12-07T02:00:14;13.60;;;10.07;;
83690;SDS011;73671;43.220;0.064;2023-12-07T02:02:40;15.80;;;10.43;;
83690;SDS011;73671;43.220;0.064;2023-12-07T02:05:06;13.88;;;9.48;;
83690;SDS011;73671;43.220;0.064;2023-12-07T02:07:32;10.13;;;6.60;;
83690;SDS011;73671;43.220;0.064;2023-12-07T02:09:59;10.00;;;7.07;;
83690;SDS011;73671;43.220;0.064;2023-12-07T02:12:24;12.90;;;6.80;;
83690;SDS011;73671;43.220;0.064;2023-12-07T02:14:51;9.73;;;6.35;;
83690;SDS011;73671;43.220;0.064;2023-12-07T02:17:24;10.52;;;6.13;;
83690;SDS011;73671;43.220;0.064;2023-12-07T02:20:08;8.57;;;6.30;;
83690;SDS011;73671;43.220;0.064;2023-12-07T02:22:56;9.68;;;5.93;;
83690;SDS011;73671;43.220;0.064;2023-12-07T02:25:29;6.85;;;5.43;;
83690;SDS011;73671;43.220;0.064;2023-12-07T02:28:00;7.90;;;5.30;;
83690;SDS011;73671;43.220;0.064;2023-12-07T02:30:25;8.30;;;5.60;;
83690;SDS011;73671;43.220;0.064;2023-12-07T02:32:50;7.43;;;5.40;;
83690;SDS011;73671;43.220;0.064;2023-12-07T02:35:16;6.90;;;5.30;;
83690;SDS011;73671;43.220;0.064;2023-12-07T02:40:16;6.63;;;5.00;;
83690;SDS011;73671;43.220;0.064;2023-12-07T02:42:43;7.65;;;5.78;;
83690;SDS011;73671;43.220;0.064;2023-12-07T02:45:09;7.72;;;5.40;;
83690;SDS011;73671;43.220;0.064;2023-12-07T02:47:37;6.53;;;5.55;;
83690;SDS011;73671;43.220;0.064;2023-12-07T02:50:04;6.22;;;5.28;;
83690;SDS011;73671;43.220;0.064;2023-12-07T02:52:31;8.73;;;5.32;;
83690;SDS011;73671;43.220;0.064;2023-12-07T02:54:56;6.72;;;5.15;;
83690;SDS011;73671;43.220;0.064;2023-12-07T02:57:22;7.68;;;4.90;;
83690;SDS011;73671;43.220;0.064;2023-12-07T02:59:47;5.97;;;4.50;;
83690;SDS011;73671;43.220;0.064;2023-12-07T03:02:12;6.13;;;4.53;;
83690;SDS011;73671;43.220;0.064;2023-12-07T03:04:38;7.15;;;3.63;;
83690;SDS011;73671;43.220;0.064;2023-12-07T03:07:03;4.25;;;3.50;;
83690;SDS011;73671;43.220;0.064;2023-12-07T03:09:28;3.88;;;3.42;;
83690;SDS011;73671;43.220;0.064;2023-12-07T03:11:54;3.65;;;3.20;;
83690;SDS011;73671;43.220;0.064;2023-12-07T03:14:19;3.35;;;3.00;;
83690;SDS011;73671;43.220;0.064;2023-12-07T03:16:45;4.70;;;3.40;;
83690;SDS011;73671;43.220;0.064;2023-12-07T03:19:10;3.65;;;3.17;;
83690;SDS011;73671;43.220;0.064;2023-12-07T03:21:38;4.43;;;3.45;;
83690;SDS011;73671;43.220;0.064;2023-12-07T03:24:04;5.68;;;3.60;;
83690;SDS011;73671;43.220;0.064;2023-12-07T03:26:31;4.75;;;3.50;;
83690;SDS011;73671;43.220;0.064;2023-12-07T03:28:56;4.35;;;3.60;;
83690;SDS011;73671;43.220;0.064;2023-12-07T03:31:21;4.15;;;3.50;;
83690;SDS011;73671;43.220;0.064;2023-12-07T03:33:47;4.35;;;3.67;;
83690;SDS011;73671;43.220;0.064;2023-12-07T03:36:12;5.18;;;3.53;;
83690;SDS011;73671;43.220;0.064;2023-12-07T03:38:38;3.47;;;3.17;;
83690;SDS011;73671;43.220;0.064;2023-12-07T03:41:03;4.20;;;3.80;;
83690;SDS011;73671;43.220;0.064;2023-12-07T03:43:28;3.72;;;3.42;;
83690;SDS011;73671;43.220;0.064;2023-12-07T03:45:54;3.42;;;3.13;;
83690;SDS011;73671;43.220;0.064;2023-12-07T03:48:20;2.60;;;2.40;;
83690;SDS011;73671;43.220;0.064;2023-12-07T03:50:45;3.10;;;2.80;;
83690;SDS011;73671;43.220;0.064;2023-12-07T03:53:10;3.05;;;2.70;;
83690;SDS011;73671;43.220;0.064;2023-12-07T03:55:36;3.70;;;2.80;;
83690;SDS011;73671;43.220;0.064;2023-12-07T03:58:02;3.97;;;3.60;;
83690;SDS011;73671;43.220;0.064;2023-12-07T04:00:27;3.20;;;2.90;;
83690;SDS011;73671;43.220;0.064;2023-12-07T04:02:52;3.20;;;2.90;;
83690;SDS011;73671;43.220;0.064;2023-12-07T04:05:18;3.13;;;2.83;;
83690;SDS011;73671;43.220;0.064;2023-12-07T04:07:43;3.13;;;2.90;;
83690;SDS011;73671;43.220;0.064;2023-12-07T04:10:09;2.88;;;2.67;;
83690;SDS011;73671;43.220;0.064;2023-12-07T04:12:34;3.28;;;2.88;;
83690;SDS011;73671;43.220;0.064;2023-12-07T04:15:00;2.47;;;2.28;;
83690;SDS011;73671;43.220;0.064;2023-12-07T04:17:25;2.70;;;2.50;;
83690;SDS011;73671;43.220;0.064;2023-12-07T04:19:50;2.60;;;2.40;;
83690;SDS011;73671;43.220;0.064;2023-12-07T04:22:16;4.60;;;2.67;;
83690;SDS011;73671;43.220;0.064;2023-12-07T04:24:41;2.42;;;2.20;;
83690;SDS011;73671;43.220;0.064;2023-12-07T04:27:07;2.85;;;2.47;;
83690;SDS011;73671;43.220;0.064;2023-12-07T04:29:32;3.80;;;2.35;;
83690;SDS011;73671;43.220;0.064;2023-12-07T04:31:57;2.67;;;2.47;;
83690;SDS011;73671;43.220;0.064;2023-12-07T04:34:23;3.42;;;2.78;;
83690;SDS011;73671;43.220;0.064;2023-12-07T04:36:49;2.80;;;2.60;;
83690;SDS011;73671;43.220;0.064;2023-12-07T04:39:14;2.72;;;2.53;;
83690;SDS011;73671;43.220;0.064;2023-12-07T04:41:39;2.80;;;2.60;;
83690;SDS011;73671;43.220;0.064;2023-12-07T04:44:05;2.60;;;2.40;;
83690;SDS011;73671;43.220;0.064;2023-12-07T04:46:30;3.05;;;2.60;;
83690;SDS011;73671;43.220;0.064;2023-12-07T04:48:56;2.80;;;2.60;;
83690;SDS011;73671;43.220;0.064;2023-12-07T04:51:21;2.80;;;2.60;;
83690;SDS011;73671;43.220;0.064;2023-12-07T04:53:46;2.90;;;2.70;;
83690;SDS011;73671;43.220;0.064;2023-12-07T04:56:12;3.28;;;2.70;;
83690;SDS011;73671;43.220;0.064;2023-12-07T04:58:38;3.53;;;3.20;;
83690;SDS011;73671;43.220;0.064;2023-12-07T05:01:04;2.75;;;2.55;;
83690;SDS011;73671;43.220;0.064;2023-12-07T05:03:29;2.67;;;2.47;;
83690;SDS011;73671;43.220;0.064;2023-12-07T05:05:54;2.90;;;2.70;;
83690;SDS011;73671;43.220;0.064;2023-12-07T05:08:20;2.95;;;2.65;;
83690;SDS011;73671;43.220;0.064;2023-12-07T05:10:45;3.00;;;2.80;;
83690;SDS011;73671;43.220;0.064;2023-12-07T05:13:11;3.97;;;2.90;;
83690;SDS011;73671;43.220;0.064;2023-12-07T05:15:37;5.07;;;3.13;;
83690;SDS011;73671;43.220;0.064;2023-12-07T05:18:02;3.28;;;2.97;;
83690;SDS011;73671;43.220;0.064;2023-12-07T05:20:28;3.72;;;3.05;;
83690;SDS011;73671;43.220;0.064;2023-12-07T05:22:54;3.38;;;2.80;;
83690;SDS011;73671;43.220;0.064;2023-12-07T05:25:19;3.38;;;3.05;;
83690;SDS011;73671;43.220;0.064;2023-12-07T05:27:45;8.88;;;3.80;;
83690;SDS011;73671;43.220;0.064;2023-12-07T05:30:11;3.40;;;3.10;;
83690;SDS011;73671;43.220;0.064;2023-12-07T05:32:37;4.50;;;2.88;;
83690;SDS011;73671;43.220;0.064;2023-12-07T05:35:03;4.60;;;3.00;;
83690;SDS011;73671;43.220;0.064;2023-12-07T05:37:29;3.20;;;2.90;;
83690;SDS011;73671;43.220;0.064;2023-12-07T05:39:54;4.68;;;3.30;;
83690;SDS011;73671;43.220;0.064;2023-12-07T05:42:19;3.45;;;3.15;;
83690;SDS011;73671;43.220;0.064;2023-12-07T05:44:45;3.50;;;3.20;;
83690;SDS011;73671;43.220;0.064;2023-12-07T05:47:10;3.33;;;2.83;;
83690;SDS011;73671;43.220;0.064;2023-12-07T05:49:36;3.95;;;2.88;;
83690;SDS011;73671;43.220;0.064;2023-12-07T05:52:02;2.90;;;2.60;;
83690;SDS011;73671;43.220;0.064;2023-12-07T05:54:28;5.65;;;3.05;;
83690;SDS011;73671;43.220;0.064;2023-12-07T05:56:53;3.00;;;2.78;;
83690;SDS011;73671;43.220;0.064;2023-12-07T05:59:18;3.83;;;2.67;;
83690;SDS011;73671;43.220;0.064;2023-12-07T06:01:44;4.95;;;3.35;;
83690;SDS011;73671;43.220;0.064;2023-12-07T06:04:09;5.53;;;3.25;;
83690;SDS011;73671;43.220;0.064;2023-12-07T06:06:35;5.38;;;3.30;;
83690;SDS011;73671;43.220;0.064;2023-12-07T06:09:01;4.43;;;3.20;;
83690;SDS011;73671;43.220;0.064;2023-12-07T06:11:26;3.70;;;3.28;;
83690;SDS011;73671;43.220;0.064;2023-12-07T06:13:52;3.83;;;3.22;;
83690;SDS011;73671;43.220;0.064;2023-12-07T06:16:17;8.68;;;5.25;;
83690;SDS011;73671;43.220;0.064;2023-12-07T06:18:43;6.07;;;4.80;;
83690;SDS011;73671;43.220;0.064;2023-12-07T06:21:09;4.53;;;3.60;;
83690;SDS011;73671;43.220;0.064;2023-12-07T06:23:34;3.50;;;3.20;;
83690;SDS011;73671;43.220;0.064;2023-12-07T06:26:00;6.07;;;3.40;;
83690;SDS011;73671;43.220;0.064;2023-12-07T06:28:27;4.07;;;3.42;;
83690;SDS011;73671;43.220;0.064;2023-12-07T06:30:52;7.50;;;3.30;;
83690;SDS011;73671;43.220;0.064;2023-12-07T06:33:18;3.88;;;3.47;;
83690;SDS011;73671;43.220;0.064;2023-12-07T06:35:43;3.30;;;2.97;;
83690;SDS011;73671;43.220;0.064;2023-12-07T06:38:08;3.30;;;3.00;;
83690;SDS011;73671;43.220;0.064;2023-12-07T06:40:34;3.20;;;2.90;;
83690;SDS011;73671;43.220;0.064;2023-12-07T06:42:59;5.18;;;3.80;;
83690;SDS011;73671;43.220;0.064;2023-12-07T06:45:25;4.30;;;3.15;;
83690;SDS011;73671;43.220;0.064;2023-12-07T06:47:50;3.40;;;2.95;;
83690;SDS011;73671;43.220;0.064;2023-12-07T06:50:16;4.60;;;3.30;;
83690;SDS011;73671;43.220;0.064;2023-12-07T06:52:42;5.45;;;3.33;;
83690;SDS011;73671;43.220;0.064;2023-12-07T06:55:07;4.90;;;3.60;;
83690;SDS011;73671;43.220;0.064;2023-12-07T06:57:35;4.70;;;3.20;;
83690;SDS011;73671;43.220;0.064;2023-12-07T07:00:00;5.65;;;3.53;;
83690;SDS011;73671;43.220;0.064;2023-12-07T07:02:30;4.40;;;3.53;;
83690;SDS011;73671;43.220;0.064;2023-12-07T07:04:55;4.72;;;3.58;;
83690;SDS011;73671;43.220;0.064;2023-12-07T07:07:21;5.18;;;3.83;;
83690;SDS011;73671;43.220;0.064;2023-12-07T07:09:46;6.15;;;4.60;;
83690;SDS011;73671;43.220;0.064;2023-12-07T07:12:12;5.05;;;4.18;;
83690;SDS011;73671;43.220;0.064;2023-12-07T07:14:37;8.02;;;3.85;;
83690;SDS011;73671;43.220;0.064;2023-12-07T07:17:03;6.00;;;4.50;;
83690;SDS011;73671;43.220;0.064;2023-12-07T07:19:29;5.47;;;4.00;;
83690;SDS011;73671;43.220;0.064;2023-12-07T07:21:55;7.03;;;4.60;;
83690;SDS011;73671;43.220;0.064;2023-12-07T07:24:20;5.78;;;4.25;;
83690;SDS011;73671;43.220;0.064;2023-12-07T07:26:46;9.43;;;4.10;;
83690;SDS011;73671;43.220;0.064;2023-12-07T07:29:11;6.05;;;4.18;;
83690;SDS011;73671;43.220;0.064;2023-12-07T07:31:37;7.07;;;4.40;;
83690;SDS011;73671;43.220;0.064;2023-12-07T07:34:02;6.53;;;4.00;;
83690;SDS011;73671;43.220;0.064;2023-12-07T07:36:28;9.38;;;4.70;;
83690;SDS011;73671;43.220;0.064;2023-12-07T07:38:54;6.47;;;4.38;;
83690;SDS011;73671;43.220;0.064;2023-12-07T07:41:19;5.43;;;4.10;;
83690;SDS011;73671;43.220;0.064;2023-12-07T07:43:45;18.58;;;5.05;;
83690;SDS011;73671;43.220;0.064;2023-12-07T07:46:10;13.82;;;4.60;;
83690;SDS011;73671;43.220;0.064;2023-12-07T07:48:36;16.00;;;4.97;;
83690;SDS011;73671;43.220;0.064;2023-12-07T07:51:02;14.82;;;4.68;;
83690;SDS011;73671;43.220;0.064;2023-12-07T07:53:28;9.13;;;4.65;;
83690;SDS011;73671;43.220;0.064;2023-12-07T07:55:53;17.75;;;5.45;;
83690;SDS011;73671;43.220;0.064;2023-12-07T07:58:19;14.65;;;4.95;;
83690;SDS011;73671;43.220;0.064;2023-12-07T08:00:45;8.48;;;4.68;;
83690;SDS011;73671;43.220;0.064;2023-12-07T08:03:11;12.90;;;5.47;;
83690;SDS011;73671;43.220;0.064;2023-12-07T08:05:37;11.27;;;5.25;;
83690;SDS011;73671;43.220;0.064;2023-12-07T08:08:02;11.52;;;6.15;;
83690;SDS011;73671;43.220;0.064;2023-12-07T08:10:28;31.15;;;5.85;;
83690;SDS011;73671;43.220;0.064;2023-12-07T08:12:53;11.32;;;6.10;;
83690;SDS011;73671;43.220;0.064;2023-12-07T08:15:19;13.45;;;6.10;;
83690;SDS011;73671;43.220;0.064;2023-12-07T08:17:45;10.90;;;6.07;;
83690;SDS011;73671;43.220;0.064;2023-12-07T08:20:11;15.10;;;6.72;;
83690;SDS011;73671;43.220;0.064;2023-12-07T08:22:38;12.60;;;6.45;;
83690;SDS011;73671;43.220;0.064;2023-12-07T08:25:04;11.82;;;5.85;;
83690;SDS011;73671;43.220;0.064;2023-12-07T08:27:31;10.40;;;6.15;;
83690;SDS011;73671;43.220;0.064;2023-12-07T08:29:58;13.52;;;6.63;;
83690;SDS011;73671;43.220;0.064;2023-12-07T08:32:23;12.02;;;6.60;;
83690;SDS011;73671;43.220;0.064;2023-12-07T08:34:50;19.52;;;7.85;;
83690;SDS011;73671;43.220;0.064;2023-12-07T08:37:16;11.98;;;7.25;;
83690;SDS011;73671;43.220;0.064;2023-12-07T08:39:42;18.63;;;7.07;;
83690;SDS011;73671;43.220;0.064;2023-12-07T08:42:07;10.68;;;6.68;;
83690;SDS011;73671;43.220;0.064;2023-12-07T08:44:33;11.25;;;6.85;;
83690;SDS011;73671;43.220;0.064;2023-12-07T08:46:58;15.35;;;6.68;;
83690;SDS011;73671;43.220;0.064;2023-12-07T08:49:24;11.40;;;6.28;;
83690;SDS011;73671;43.220;0.064;2023-12-07T08:51:50;12.52;;;7.38;;
83690;SDS011;73671;43.220;0.064;2023-12-07T08:54:16;13.82;;;6.90;;
83690;SDS011;73671;43.220;0.064;2023-12-07T08:56:43;18.05;;;7.00;;
83690;SDS011;73671;43.220;0.064;2023-12-07T08:59:09;14.68;;;6.90;;
83690;SDS011;73671;43.220;0.064;2023-12-07T09:01:35;10.73;;;7.05;;
83690;SDS011;73671;43.220;0.064;2023-12-07T09:04:00;13.10;;;7.05;;
83690;SDS011;73671;43.220;0.064;2023-12-07T09:06:26;10.88;;;7.07;;
83690;SDS011;73671;43.220;0.064;2023-12-07T09:08:51;14.10;;;6.93;;
83690;SDS011;73671;43.220;0.064;2023-12-07T09:11:17;11.85;;;6.82;;
83690;SDS011;73671;43.220;0.064;2023-12-07T09:13:42;14.63;;;7.28;;
83690;SDS011;73671;43.220;0.064;2023-12-07T09:16:08;16.67;;;8.55;;
83690;SDS011;73671;43.220;0.064;2023-12-07T09:18:33;16.20;;;9.00;;
83690;SDS011;73671;43.220;0.064;2023-12-07T09:21:00;15.93;;;7.85;;
83690;SDS011;73671;43.220;0.064;2023-12-07T09:23:25;17.35;;;8.35;;
83690;SDS011;73671;43.220;0.064;2023-12-07T09:25:51;26.08;;;8.40;;
83690;SDS011;73671;43.220;0.064;2023-12-07T09:28:17;19.20;;;8.50;;
83690;SDS011;73671;43.220;0.064;2023-12-07T09:30:42;17.13;;;9.00;;
83690;SDS011;73671;43.220;0.064;2023-12-07T09:33:09;17.98;;;9.70;;
83690;SDS011;73671;43.220;0.064;2023-12-07T09:35:34;17.52;;;10.23;;
83690;SDS011;73671;43.220;0.064;2023-12-07T09:38:00;17.20;;;9.48;;
83690;SDS011;73671;43.220;0.064;2023-12-07T09:40:25;15.15;;;8.98;;
83690;SDS011;73671;43.220;0.064;2023-12-07T09:42:52;19.58;;;10.23;;
83690;SDS011;73671;43.220;0.064;2023-12-07T09:45:18;24.17;;;11.55;;
83690;SDS011;73671;43.220;0.064;2023-12-07T09:47:48;22.10;;;11.15;;
83690;SDS011;73671;43.220;0.064;2023-12-07T09:50:16;21.92;;;10.30;;
83690;SDS011;73671;43.220;0.064;2023-12-07T09:52:49;22.40;;;10.85;;
83690;SDS011;73671;43.220;0.064;2023-12-07T09:55:16;15.55;;;8.23;;
83690;SDS011;73671;43.220;0.064;2023-12-07T09:57:42;10.73;;;7.43;;
83690;SDS011;73671;43.220;0.064;2023-12-07T10:00:08;13.27;;;7.05;;
83690;SDS011;73671;43.220;0.064;2023-12-07T10:02:38;14.05;;;7.95;;
83690;SDS011;73671;43.220;0.064;2023-12-07T10:05:07;12.13;;;7.65;;
83690;SDS011;73671;43.220;0.064;2023-12-07T10:07:44;12.02;;;7.18;;
83690;SDS011;73671;43.220;0.064;2023-12-07T10:10:14;12.45;;;8.63;;
83690;SDS011;73671;43.220;0.064;2023-12-07T10:12:44;14.63;;;8.02;;
83690;SDS011;73671;43.220;0.064;2023-12-07T10:15:14;10.60;;;6.70;;
83690;SDS011;73671;43.220;0.064;2023-12-07T10:17:50;11.25;;;6.40;;
83690;SDS011;73671;43.220;0.064;2023-12-07T10:20:19;8.55;;;5.88;;
83690;SDS011;73671;43.220;0.064;2023-12-07T10:22:49;10.48;;;6.63;;
83690;SDS011;73671;43.220;0.064;2023-12-07T10:25:28;10.38;;;6.57;;
83690;SDS011;73671;43.220;0.064;2023-12-07T10:27:54;10.32;;;6.13;;
83690;SDS011;73671;43.220;0.064;2023-12-07T10:30:20;13.60;;;6.55;;
83690;SDS011;73671;43.220;0.064;2023-12-07T10:32:50;10.90;;;6.40;;
83690;SDS011;73671;43.220;0.064;2023-12-07T10:35:16;8.90;;;6.20;;
83690;SDS011;73671;43.220;0.064;2023-12-07T10:37:42;10.63;;;6.10;;
83690;SDS011;73671;43.220;0.064;2023-12-07T10:40:07;8.75;;;6.03;;
83690;SDS011;73671;43.220;0.064;2023-12-07T10:42:33;10.48;;;5.55;;
83690;SDS011;73671;43.220;0.064;2023-12-07T10:45:02;11.15;;;6.72;;
83690;SDS011;73671;43.220;0.064;2023-12-07T10:47:30;11.60;;;6.00;;
83690;SDS011;73671;43.220;0.064;2023-12-07T10:49:57;10.88;;;5.43;;
83690;SDS011;73671;43.220;0.064;2023-12-07T10:52:25;7.72;;;5.22;;
83690;SDS011;73671;43.220;0.064;2023-12-07T10:55:10;7.70;;;5.55;;
83690;SDS011;73671;43.220;0.064;2023-12-07T10:57:40;9.65;;;5.53;;
83690;SDS011;73671;43.220;0.064;2023-12-07T11:00:07;14.05;;;6.65;;
83690;SDS011;73671;43.220;0.064;2023-12-07T11:02:34;22.27;;;9.48;;
83690;SDS011;73671;43.220;0.064;2023-12-07T11:05:00;14.98;;;8.65;;
83690;SDS011;73671;43.220;0.064;2023-12-07T11:07:27;15.93;;;7.72;;
83690;SDS011;73671;43.220;0.064;2023-12-07T11:10:25;13.38;;;7.25;;
83690;SDS011;73671;43.220;0.064;2023-12-07T11:13:14;9.48;;;6.47;;
83690;SDS011;73671;43.220;0.064;2023-12-07T11:15:45;10.40;;;6.40;;
83690;SDS011;73671;43.220;0.064;2023-12-07T11:18:11;12.85;;;7.25;;
83690;SDS011;73671;43.220;0.064;2023-12-07T11:20:39;9.65;;;6.38;;
83690;SDS011;73671;43.220;0.064;2023-12-07T11:23:07;19.40;;;12.45;;
83690;SDS011;73671;43.220;0.064;2023-12-07T11:25:33;37.28;;;21.40;;
83690;SDS011;73671;43.220;0.064;2023-12-07T11:28:05;25.52;;;15.40;;
83690;SDS011;73671;43.220;0.064;2023-12-07T11:30:32;26.48;;;15.88;;
83690;SDS011;73671;43.220;0.064;2023-12-07T11:33:00;22.33;;;13.65;;
83690;SDS011;73671;43.220;0.064;2023-12-07T11:35:28;21.52;;;12.23;;
83690;SDS011;73671;43.220;0.064;2023-12-07T11:38:07;14.13;;;7.93;;
83690;SDS011;73671;43.220;0.064;2023-12-07T11:40:34;17.85;;;9.57;;
83690;SDS011;73671;43.220;0.064;2023-12-07T11:46:03;13.93;;;8.52;;
83690;SDS011;73671;43.220;0.064;2023-12-07T11:48:29;14.23;;;7.85;;
83690;SDS011;73671;43.220;0.064;2023-12-07T11:53:21;11.68;;;6.97;;
83690;SDS011;73671;43.220;0.064;2023-12-07T11:55:49;10.60;;;6.68;;
83690;SDS011;73671;43.220;0.064;2023-12-07T11:58:14;10.63;;;6.68;;
83690;SDS011;73671;43.220;0.064;2023-12-07T12:00:40;10.88;;;5.35;;
83690;SDS011;73671;43.220;0.064;2023-12-07T12:03:05;11.60;;;5.95;;
83690;SDS011;73671;43.220;0.064;2023-12-07T12:05:31;11.73;;;6.30;;
83690;SDS011;73671;43.220;0.064;2023-12-07T12:07:56;9.80;;;5.80;;
83690;SDS011;73671;43.220;0.064;2023-12-07T12:10:22;11.65;;;5.70;;
83690;SDS011;73671;43.220;0.064;2023-12-07T12:12:50;9.10;;;5.80;;
83690;SDS011;73671;43.220;0.064;2023-12-07T12:15:16;11.23;;;6.90;;
83690;SDS011;73671;43.220;0.064;2023-12-07T12:17:41;13.48;;;7.32;;
83690;SDS011;73671;43.220;0.064;2023-12-07T12:20:08;11.50;;;7.50;;
83690;SDS011;73671;43.220;0.064;2023-12-07T12:22:36;25.23;;;13.70;;
83690;SDS011;73671;43.220;0.064;2023-12-07T12:25:02;23.85;;;12.50;;
83690;SDS011;73671;43.220;0.064;2023-12-07T12:27:28;21.25;;;11.93;;
83690;SDS011;73671;43.220;0.064;2023-12-07T12:29:54;26.25;;;12.73;;
83690;SDS011;73671;43.220;0.064;2023-12-07T12:32:21;22.67;;;12.52;;
83690;SDS011;73671;43.220;0.064;2023-12-07T12:34:50;20.85;;;12.25;;
83690;SDS011;73671;43.220;0.064;2023-12-07T12:37:16;18.95;;;11.65;;
83690;SDS011;73671;43.220;0.064;2023-12-07T12:39:41;21.10;;;12.30;;
83690;SDS011;73671;43.220;0.064;2023-12-07T12:42:07;17.48;;;10.32;;
83690;SDS011;73671;43.220;0.064;2023-12-07T12:44:32;24.20;;;12.35;;
83690;SDS011;73671;43.220;0.064;2023-12-07T12:46:58;24.33;;;13.05;;
83690;SDS011;73671;43.220;0.064;2023-12-07T12:49:34;20.48;;;11.27;;
83690;SDS011;73671;43.220;0.064;2023-12-07T12:52:00;24.23;;;9.88;;
83690;SDS011;73671;43.220;0.064;2023-12-07T12:54:30;18.73;;;10.45;;
83690;SDS011;73671;43.220;0.064;2023-12-07T12:56:57;31.50;;;13.52;;
83690;SDS011;73671;43.220;0.064;2023-12-07T12:59:23;29.17;;;13.73;;
83690;SDS011;73671;43.220;0.064;2023-12-07T13:01:50;33.13;;;16.48;;
83690;SDS011;73671;43.220;0.064;2023-12-07T13:04:15;21.70;;;11.18;;
83690;SDS011;73671;43.220;0.064;2023-12-07T13:06:41;15.02;;;9.15;;
83690;SDS011;73671;43.220;0.064;2023-12-07T13:09:06;17.80;;;8.70;;
83690;SDS011;73671;43.220;0.064;2023-12-07T13:11:32;14.95;;;8.10;;
83690;SDS011;73671;43.220;0.064;2023-12-07T13:13:58;15.77;;;8.48;;
83690;SDS011;73671;43.220;0.064;2023-12-07T13:16:24;14.98;;;8.00;;
83690;SDS011;73671;43.220;0.064;2023-12-07T13:18:49;18.05;;;8.60;;
83690;SDS011;73671;43.220;0.064;2023-12-07T13:21:14;12.88;;;8.55;;
83690;SDS011;73671;43.220;0.064;2023-12-07T13:23:40;18.10;;;8.82;;
83690;SDS011;73671;43.220;0.064;2023-12-07T13:26:06;14.13;;;8.43;;
83690;SDS011;73671;43.220;0.064;2023-12-07T13:28:31;16.85;;;8.75;;
83690;SDS011;73671;43.220;0.064;2023-12-07T13:30:57;16.88;;;10.32;;
83690;SDS011;73671;43.220;0.064;2023-12-07T13:33:22;21.55;;;13.35;;
83690;SDS011;73671;43.220;0.064;2023-12-07T13:35:48;19.67;;;12.02;;
83690;SDS011;73671;43.220;0.064;2023-12-07T13:38:14;15.85;;;10.98;;
83690;SDS011;73671;43.220;0.064;2023-12-07T13:40:39;18.23;;;10.48;;
83690;SDS011;73671;43.220;0.064;2023-12-07T13:43:04;21.63;;;10.57;;
83690;SDS011;73671;43.220;0.064;2023-12-07T13:45:31;19.08;;;10.40;;
83690;SDS011;73671;43.220;0.064;2023-12-07T13:47:57;14.93;;;9.85;;
83690;SDS011;73671;43.220;0.064;2023-12-07T13:50:23;16.75;;;9.95;;
83690;SDS011;73671;43.220;0.064;2023-12-07T13:52:49;16.58;;;8.88;;
83690;SDS011;73671;43.220;0.064;2023-12-07T13:55:14;13.52;;;8.90;;
83690;SDS011;73671;43.220;0.064;2023-12-07T13:57:40;10.68;;;7.35;;
83690;SDS011;73671;43.220;0.064;2023-12-07T14:00:05;13.68;;;8.13;;
83690;SDS011;73671;43.220;0.064;2023-12-07T14:02:31;13.48;;;6.40;;
83690;SDS011;73671;43.220;0.064;2023-12-07T14:04:57;14.43;;;7.80;;
83690;SDS011;73671;43.220;0.064;2023-12-07T14:07:22;15.95;;;6.75;;
83690;SDS011;73671;43.220;0.064;2023-12-07T14:09:49;18.70;;;7.53;;
83690;SDS011;73671;43.220;0.064;2023-12-07T14:12:16;26.83;;;13.32;;
83690;SDS011;73671;43.220;0.064;2023-12-07T14:14:43;16.08;;;8.18;;
83690;SDS011;73671;43.220;0.064;2023-12-07T14:17:12;12.82;;;6.82;;
83690;SDS011;73671;43.220;0.064;2023-12-07T14:19:37;16.23;;;7.60;;
83690;SDS011;73671;43.220;0.064;2023-12-07T14:22:03;13.88;;;7.38;;
83690;SDS011;73671;43.220;0.064;2023-12-07T14:24:29;15.18;;;6.63;;
83690;SDS011;73671;43.220;0.064;2023-12-07T14:26:56;11.57;;;5.82;;
83690;SDS011;73671;43.220;0.064;2023-12-07T14:29:22;10.50;;;6.45;;
83690;SDS011;73671;43.220;0.064;2023-12-07T14:31:50;14.07;;;6.40;;
83690;SDS011;73671;43.220;0.064;2023-12-07T14:34:16;14.23;;;6.88;;
83690;SDS011;73671;43.220;0.064;2023-12-07T14:36:42;10.55;;;6.18;;
83690;SDS011;73671;43.220;0.064;2023-12-07T14:39:09;14.50;;;7.13;;